sensor_id;sensor_type;location;lat;lon;timestamp;P1;durP1;ratioP1;P2;durP2;ratioP2
46643;SDS011;32371;51.032;5.816;2023-11-19T00:01:45;0.38;;;0.35;;
46643;SDS011;32371;51.032;5.816;2023-11-19T00:04:12;0.30;;;0.30;;
46643;SDS011;32371;51.032;5.816;2023-11-19T00:06:37;3.20;;;0.55;;
46643;SDS011;32371;51.032;5.816;2023-11-19T00:09:02;0.38;;;0.32;;
46643;SDS011;32371;51.032;5.816;2023-11-19T00:11:29;0.57;;;0.55;;
46643;SDS011;32371;51.032;5.816;2023-11-19T00:13:54;1.30;;;0.50;;
46643;SDS011;32371;51.032;5.816;2023-11-19T00:16:20;0.52;;;0.50;;
46643;SDS011;32371;51.032;5.816;2023-11-19T00:18:45;0.85;;;0.63;;
46643;SDS011;32371;51.032;5.816;2023-11-19T00:21:10;0.60;;;0.32;;
46643;SDS011;32371;51.032;5.816;2023-11-19T00:23:36;1.65;;;0.32;;
46643;SDS011;32371;51.032;5.816;2023-11-19T00:26:01;0.30;;;0.30;;
46643;SDS011;32371;51.032;5.816;2023-11-19T00:28:27;0.47;;;0.30;;
46643;SDS011;32371;51.032;5.816;2023-11-19T00:30:53;0.20;;;0.10;;
46643;SDS011;32371;51.032;5.816;2023-11-19T00:33:18;0.20;;;0.20;;
46643;SDS011;32371;51.032;5.816;2023-11-19T00:35:44;1.48;;;0.50;;
46643;SDS011;32371;51.032;5.816;2023-11-19T00:38:09;0.68;;;0.10;;
46643;SDS011;32371;51.032;5.816;2023-11-19T00:40:35;0.57;;;0.30;;
46643;SDS011;32371;51.032;5.816;2023-11-19T00:43:00;3.70;;;0.32;;
46643;SDS011;32371;51.032;5.816;2023-11-19T00:45:25;1.95;;;0.40;;
46643;SDS011;32371;51.032;5.816;2023-11-19T00:47:52;0.20;;;0.20;;
46643;SDS011;32371;51.032;5.816;2023-11-19T00:50:17;0.25;;;0.25;;
46643;SDS011;32371;51.032;5.816;2023-11-19T00:52:42;0.20;;;0.20;;
46643;SDS011;32371;51.032;5.816;2023-11-19T00:55:08;0.17;;;0.17;;
46643;SDS011;32371;51.032;5.816;2023-11-19T00:57:33;0.30;;;0.25;;
46643;SDS011;32371;51.032;5.816;2023-11-19T00:59:59;0.63;;;0.30;;
46643;SDS011;32371;51.032;5.816;2023-11-19T01:02:24;0.60;;;0.30;;
46643;SDS011;32371;51.032;5.816;2023-11-19T01:04:50;0.40;;;0.30;;
46643;SDS011;32371;51.032;5.816;2023-11-19T01:07:15;0.60;;;0.35;;
46643;SDS011;32371;51.032;5.816;2023-11-19T01:09:44;0.52;;;0.30;;
46643;SDS011;32371;51.032;5.816;2023-11-19T01:12:09;0.60;;;0.55;;
46643;SDS011;32371;51.032;5.816;2023-11-19T01:14:35;2.38;;;0.50;;
46643;SDS011;32371;51.032;5.816;2023-11-19T01:17:00;0.77;;;0.28;;
46643;SDS011;32371;51.032;5.816;2023-11-19T01:19:26;0.80;;;0.60;;
46643;SDS011;32371;51.032;5.816;2023-11-19T01:21:53;3.47;;;0.70;;
46643;SDS011;32371;51.032;5.816;2023-11-19T01:24:18;1.27;;;1.05;;
46643;SDS011;32371;51.032;5.816;2023-11-19T01:26:44;1.30;;;0.73;;
46643;SDS011;32371;51.032;5.816;2023-11-19T01:29:13;2.85;;;0.50;;
46643;SDS011;32371;51.032;5.816;2023-11-19T01:31:39;2.80;;;1.05;;
46643;SDS011;32371;51.032;5.816;2023-11-19T01:34:08;1.95;;;0.77;;
46643;SDS011;32371;51.032;5.816;2023-11-19T01:36:34;5.32;;;0.95;;
46643;SDS011;32371;51.032;5.816;2023-11-19T01:38:59;4.57;;;0.88;;
46643;SDS011;32371;51.032;5.816;2023-11-19T01:41:25;2.83;;;1.45;;
46643;SDS011;32371;51.032;5.816;2023-11-19T01:43:50;5.00;;;0.85;;
46643;SDS011;32371;51.032;5.816;2023-11-19T01:46:16;2.78;;;1.25;;
46643;SDS011;32371;51.032;5.816;2023-11-19T01:48:45;2.55;;;0.65;;
46643;SDS011;32371;51.032;5.816;2023-11-19T01:51:14;1.35;;;0.77;;
46643;SDS011;32371;51.032;5.816;2023-11-19T01:53:41;3.42;;;1.00;;
46643;SDS011;32371;51.032;5.816;2023-11-19T01:56:08;4.57;;;0.82;;
46643;SDS011;32371;51.032;5.816;2023-11-19T01:58:37;2.30;;;0.70;;
46643;SDS011;32371;51.032;5.816;2023-11-19T02:01:04;2.38;;;0.93;;
46643;SDS011;32371;51.032;5.816;2023-11-19T02:03:31;7.45;;;0.80;;
46643;SDS011;32371;51.032;5.816;2023-11-19T02:05:57;3.70;;;1.20;;
46643;SDS011;32371;51.032;5.816;2023-11-19T02:08:23;2.65;;;1.15;;
46643;SDS011;32371;51.032;5.816;2023-11-19T02:10:49;5.78;;;1.08;;
46643;SDS011;32371;51.032;5.816;2023-11-19T02:13:14;7.30;;;1.42;;
46643;SDS011;32371;51.032;5.816;2023-11-19T02:15:41;2.45;;;1.08;;
46643;SDS011;32371;51.032;5.816;2023-11-19T02:18:22;4.13;;;2.33;;
46643;SDS011;32371;51.032;5.816;2023-11-19T02:20:52;7.07;;;1.08;;
46643;SDS011;32371;51.032;5.816;2023-11-19T02:23:18;10.07;;;2.25;;
46643;SDS011;32371;51.032;5.816;2023-11-19T02:25:47;5.30;;;1.40;;
46643;SDS011;32371;51.032;5.816;2023-11-19T02:28:14;5.85;;;1.23;;
46643;SDS011;32371;51.032;5.816;2023-11-19T02:30:41;13.07;;;1.70;;
46643;SDS011;32371;51.032;5.816;2023-11-19T02:33:06;4.53;;;1.27;;
46643;SDS011;32371;51.032;5.816;2023-11-19T02:35:32;5.85;;;1.60;;
46643;SDS011;32371;51.032;5.816;2023-11-19T02:37:58;7.40;;;1.73;;
46643;SDS011;32371;51.032;5.816;2023-11-19T02:40:25;5.45;;;1.17;;
46643;SDS011;32371;51.032;5.816;2023-11-19T02:42:51;4.55;;;1.40;;
46643;SDS011;32371;51.032;5.816;2023-11-19T02:45:17;3.38;;;1.05;;
46643;SDS011;32371;51.032;5.816;2023-11-19T02:47:43;12.45;;;1.50;;
46643;SDS011;32371;51.032;5.816;2023-11-19T02:50:09;8.13;;;1.33;;
46643;SDS011;32371;51.032;5.816;2023-11-19T02:52:50;8.38;;;1.45;;
46643;SDS011;32371;51.032;5.816;2023-11-19T02:55:16;10.48;;;1.63;;
46643;SDS011;32371;51.032;5.816;2023-11-19T02:57:43;12.07;;;1.60;;
46643;SDS011;32371;51.032;5.816;2023-11-19T03:00:16;11.23;;;1.67;;
46643;SDS011;32371;51.032;5.816;2023-11-19T03:02:48;11.95;;;1.58;;
46643;SDS011;32371;51.032;5.816;2023-11-19T03:05:23;4.60;;;2.30;;
46643;SDS011;32371;51.032;5.816;2023-11-19T03:07:49;10.00;;;1.58;;
46643;SDS011;32371;51.032;5.816;2023-11-19T03:10:14;10.38;;;2.13;;
46643;SDS011;32371;51.032;5.816;2023-11-19T03:12:40;4.03;;;0.98;;
46643;SDS011;32371;51.032;5.816;2023-11-19T03:15:06;7.20;;;1.80;;
46643;SDS011;32371;51.032;5.816;2023-11-19T03:17:32;3.40;;;1.38;;
46643;SDS011;32371;51.032;5.816;2023-11-19T03:19:57;8.93;;;1.30;;
46643;SDS011;32371;51.032;5.816;2023-11-19T03:22:23;8.45;;;1.88;;
46643;SDS011;32371;51.032;5.816;2023-11-19T03:24:50;9.32;;;2.95;;
46643;SDS011;32371;51.032;5.816;2023-11-19T03:27:16;10.80;;;1.63;;
46643;SDS011;32371;51.032;5.816;2023-11-19T03:29:41;13.70;;;2.22;;
46643;SDS011;32371;51.032;5.816;2023-11-19T03:32:07;7.18;;;1.35;;
46643;SDS011;32371;51.032;5.816;2023-11-19T03:34:32;4.43;;;1.20;;
46643;SDS011;32371;51.032;5.816;2023-11-19T03:36:58;6.90;;;1.40;;
46643;SDS011;32371;51.032;5.816;2023-11-19T03:39:23;9.60;;;1.30;;
46643;SDS011;32371;51.032;5.816;2023-11-19T03:41:50;12.70;;;1.73;;
46643;SDS011;32371;51.032;5.816;2023-11-19T03:44:15;6.53;;;2.33;;
46643;SDS011;32371;51.032;5.816;2023-11-19T03:46:41;12.35;;;1.75;;
46643;SDS011;32371;51.032;5.816;2023-11-19T03:49:07;15.30;;;1.90;;
46643;SDS011;32371;51.032;5.816;2023-11-19T03:51:32;9.38;;;1.80;;
46643;SDS011;32371;51.032;5.816;2023-11-19T03:53:59;8.98;;;1.92;;
46643;SDS011;32371;51.032;5.816;2023-11-19T03:56:24;11.70;;;2.42;;
46643;SDS011;32371;51.032;5.816;2023-11-19T03:58:49;5.78;;;1.40;;
46643;SDS011;32371;51.032;5.816;2023-11-19T04:01:15;14.10;;;2.05;;
46643;SDS011;32371;51.032;5.816;2023-11-19T04:03:40;11.70;;;1.52;;
46643;SDS011;32371;51.032;5.816;2023-11-19T04:06:06;13.63;;;2.15;;
46643;SDS011;32371;51.032;5.816;2023-11-19T04:08:31;11.77;;;1.77;;
46643;SDS011;32371;51.032;5.816;2023-11-19T04:10:56;3.65;;;1.52;;
46643;SDS011;32371;51.032;5.816;2023-11-19T04:13:22;10.43;;;1.90;;
46643;SDS011;32371;51.032;5.816;2023-11-19T04:15:49;8.73;;;2.00;;
46643;SDS011;32371;51.032;5.816;2023-11-19T04:18:15;12.98;;;2.63;;
46643;SDS011;32371;51.032;5.816;2023-11-19T04:20:40;10.90;;;1.60;;
46643;SDS011;32371;51.032;5.816;2023-11-19T04:23:07;12.88;;;2.08;;
46643;SDS011;32371;51.032;5.816;2023-11-19T04:25:32;8.35;;;2.63;;
46643;SDS011;32371;51.032;5.816;2023-11-19T04:27:58;8.80;;;1.23;;
46643;SDS011;32371;51.032;5.816;2023-11-19T04:30:23;13.07;;;2.72;;
46643;SDS011;32371;51.032;5.816;2023-11-19T04:32:48;13.93;;;3.30;;
46643;SDS011;32371;51.032;5.816;2023-11-19T04:35:14;22.80;;;1.95;;
46643;SDS011;32371;51.032;5.816;2023-11-19T04:37:39;12.60;;;1.63;;
46643;SDS011;32371;51.032;5.816;2023-11-19T04:40:07;9.45;;;1.95;;
46643;SDS011;32371;51.032;5.816;2023-11-19T04:42:32;11.20;;;1.35;;
46643;SDS011;32371;51.032;5.816;2023-11-19T04:44:58;8.68;;;1.85;;
46643;SDS011;32371;51.032;5.816;2023-11-19T04:47:23;7.97;;;2.35;;
46643;SDS011;32371;51.032;5.816;2023-11-19T04:49:48;8.18;;;1.88;;
46643;SDS011;32371;51.032;5.816;2023-11-19T04:52:14;6.28;;;1.58;;
46643;SDS011;32371;51.032;5.816;2023-11-19T04:54:42;11.02;;;1.85;;
46643;SDS011;32371;51.032;5.816;2023-11-19T04:57:08;9.55;;;2.50;;
46643;SDS011;32371;51.032;5.816;2023-11-19T04:59:36;11.88;;;1.85;;
46643;SDS011;32371;51.032;5.816;2023-11-19T05:02:01;11.73;;;1.80;;
46643;SDS011;32371;51.032;5.816;2023-11-19T05:04:27;7.75;;;1.67;;
46643;SDS011;32371;51.032;5.816;2023-11-19T05:06:52;11.27;;;2.10;;
46643;SDS011;32371;51.032;5.816;2023-11-19T05:09:18;15.57;;;2.20;;
46643;SDS011;32371;51.032;5.816;2023-11-19T05:11:43;7.25;;;1.60;;
46643;SDS011;32371;51.032;5.816;2023-11-19T05:14:09;10.32;;;1.45;;
46643;SDS011;32371;51.032;5.816;2023-11-19T05:16:34;18.88;;;2.15;;
46643;SDS011;32371;51.032;5.816;2023-11-19T05:19:00;8.48;;;1.85;;
46643;SDS011;32371;51.032;5.816;2023-11-19T05:21:25;10.38;;;1.63;;
46643;SDS011;32371;51.032;5.816;2023-11-19T05:23:51;11.45;;;2.53;;
46643;SDS011;32371;51.032;5.816;2023-11-19T05:26:19;12.65;;;3.38;;
46643;SDS011;32371;51.032;5.816;2023-11-19T05:28:46;11.32;;;1.80;;
46643;SDS011;32371;51.032;5.816;2023-11-19T05:31:12;4.70;;;1.33;;
46643;SDS011;32371;51.032;5.816;2023-11-19T05:33:37;14.10;;;2.83;;
46643;SDS011;32371;51.032;5.816;2023-11-19T05:36:03;7.57;;;2.03;;
46643;SDS011;32371;51.032;5.816;2023-11-19T05:38:29;9.77;;;1.92;;
46643;SDS011;32371;51.032;5.816;2023-11-19T05:40:55;12.60;;;2.42;;
46643;SDS011;32371;51.032;5.816;2023-11-19T05:43:20;17.27;;;2.58;;
46643;SDS011;32371;51.032;5.816;2023-11-19T05:45:46;16.50;;;2.47;;
46643;SDS011;32371;51.032;5.816;2023-11-19T05:48:11;10.95;;;1.80;;
46643;SDS011;32371;51.032;5.816;2023-11-19T05:50:37;10.82;;;2.00;;
46643;SDS011;32371;51.032;5.816;2023-11-19T05:53:02;19.08;;;3.67;;
46643;SDS011;32371;51.032;5.816;2023-11-19T05:55:30;17.85;;;2.90;;
46643;SDS011;32371;51.032;5.816;2023-11-19T05:57:56;10.95;;;1.80;;
46643;SDS011;32371;51.032;5.816;2023-11-19T06:00:21;11.18;;;1.90;;
46643;SDS011;32371;51.032;5.816;2023-11-19T06:02:47;11.60;;;2.00;;
46643;SDS011;32371;51.032;5.816;2023-11-19T06:05:12;11.00;;;2.80;;
46643;SDS011;32371;51.032;5.816;2023-11-19T06:07:37;13.25;;;2.40;;
46643;SDS011;32371;51.032;5.816;2023-11-19T06:10:04;13.80;;;2.17;;
46643;SDS011;32371;51.032;5.816;2023-11-19T06:12:31;14.50;;;2.55;;
46643;SDS011;32371;51.032;5.816;2023-11-19T06:14:59;14.07;;;3.05;;
46643;SDS011;32371;51.032;5.816;2023-11-19T06:17:25;13.40;;;2.70;;
46643;SDS011;32371;51.032;5.816;2023-11-19T06:19:50;11.65;;;2.58;;
46643;SDS011;32371;51.032;5.816;2023-11-19T06:22:16;25.88;;;3.85;;
46643;SDS011;32371;51.032;5.816;2023-11-19T06:24:41;21.30;;;2.90;;
46643;SDS011;32371;51.032;5.816;2023-11-19T06:27:07;10.48;;;1.92;;
46643;SDS011;32371;51.032;5.816;2023-11-19T06:29:32;23.15;;;2.13;;
46643;SDS011;32371;51.032;5.816;2023-11-19T06:31:58;15.98;;;2.33;;
46643;SDS011;32371;51.032;5.816;2023-11-19T06:34:23;15.52;;;2.40;;
46643;SDS011;32371;51.032;5.816;2023-11-19T06:36:48;15.13;;;2.75;;
46643;SDS011;32371;51.032;5.816;2023-11-19T06:39:14;10.50;;;1.95;;
46643;SDS011;32371;51.032;5.816;2023-11-19T06:41:44;19.58;;;2.78;;
46643;SDS011;32371;51.032;5.816;2023-11-19T06:44:10;16.27;;;3.13;;
46643;SDS011;32371;51.032;5.816;2023-11-19T06:46:35;15.90;;;2.65;;
46643;SDS011;32371;51.032;5.816;2023-11-19T06:49:00;9.85;;;2.20;;
46643;SDS011;32371;51.032;5.816;2023-11-19T06:51:26;14.13;;;1.65;;
46643;SDS011;32371;51.032;5.816;2023-11-19T06:53:51;14.45;;;2.17;;
46643;SDS011;32371;51.032;5.816;2023-11-19T06:56:18;14.43;;;1.80;;
46643;SDS011;32371;51.032;5.816;2023-11-19T06:58:44;16.33;;;2.30;;
46643;SDS011;32371;51.032;5.816;2023-11-19T07:01:09;13.52;;;2.17;;
46643;SDS011;32371;51.032;5.816;2023-11-19T07:03:35;14.38;;;2.78;;
46643;SDS011;32371;51.032;5.816;2023-11-19T07:06:00;18.02;;;2.63;;
46643;SDS011;32371;51.032;5.816;2023-11-19T07:08:25;14.10;;;3.15;;
46643;SDS011;32371;51.032;5.816;2023-11-19T07:10:51;14.13;;;1.95;;
46643;SDS011;32371;51.032;5.816;2023-11-19T07:13:17;15.40;;;2.25;;
46643;SDS011;32371;51.032;5.816;2023-11-19T07:15:42;8.30;;;2.80;;
46643;SDS011;32371;51.032;5.816;2023-11-19T07:18:08;11.95;;;2.38;;
46643;SDS011;32371;51.032;5.816;2023-11-19T07:20:33;12.48;;;2.22;;
46643;SDS011;32371;51.032;5.816;2023-11-19T07:22:59;15.73;;;3.80;;
46643;SDS011;32371;51.032;5.816;2023-11-19T07:25:24;12.93;;;2.78;;
46643;SDS011;32371;51.032;5.816;2023-11-19T07:27:51;18.70;;;2.88;;
46643;SDS011;32371;51.032;5.816;2023-11-19T07:30:17;16.90;;;2.20;;
46643;SDS011;32371;51.032;5.816;2023-11-19T07:32:42;18.77;;;3.17;;
46643;SDS011;32371;51.032;5.816;2023-11-19T07:35:08;22.25;;;3.50;;
46643;SDS011;32371;51.032;5.816;2023-11-19T07:37:34;12.00;;;2.83;;
46643;SDS011;32371;51.032;5.816;2023-11-19T07:39:59;17.15;;;2.80;;
46643;SDS011;32371;51.032;5.816;2023-11-19T07:42:24;13.77;;;3.33;;
46643;SDS011;32371;51.032;5.816;2023-11-19T07:44:50;14.77;;;2.00;;
46643;SDS011;32371;51.032;5.816;2023-11-19T07:47:15;20.25;;;2.08;;
46643;SDS011;32371;51.032;5.816;2023-11-19T07:49:41;18.58;;;2.47;;
46643;SDS011;32371;51.032;5.816;2023-11-19T07:52:08;13.18;;;2.65;;
46643;SDS011;32371;51.032;5.816;2023-11-19T07:54:34;12.70;;;3.30;;
46643;SDS011;32371;51.032;5.816;2023-11-19T07:56:59;17.60;;;4.47;;
46643;SDS011;32371;51.032;5.816;2023-11-19T07:59:24;17.85;;;3.17;;
46643;SDS011;32371;51.032;5.816;2023-11-19T08:01:50;15.18;;;3.03;;
46643;SDS011;32371;51.032;5.816;2023-11-19T08:04:15;9.23;;;2.63;;
46643;SDS011;32371;51.032;5.816;2023-11-19T08:06:40;15.70;;;2.95;;
46643;SDS011;32371;51.032;5.816;2023-11-19T08:09:06;16.83;;;2.55;;
46643;SDS011;32371;51.032;5.816;2023-11-19T08:11:31;18.83;;;2.53;;
46643;SDS011;32371;51.032;5.816;2023-11-19T08:13:57;13.48;;;2.42;;
46643;SDS011;32371;51.032;5.816;2023-11-19T08:16:22;18.48;;;3.20;;
46643;SDS011;32371;51.032;5.816;2023-11-19T08:18:48;15.57;;;3.42;;
46643;SDS011;32371;51.032;5.816;2023-11-19T08:21:13;14.48;;;2.22;;
46643;SDS011;32371;51.032;5.816;2023-11-19T08:23:38;21.27;;;3.38;;
46643;SDS011;32371;51.032;5.816;2023-11-19T08:26:04;20.20;;;2.55;;
46643;SDS011;32371;51.032;5.816;2023-11-19T08:28:30;17.17;;;3.35;;
46643;SDS011;32371;51.032;5.816;2023-11-19T08:30:56;15.20;;;2.85;;
46643;SDS011;32371;51.032;5.816;2023-11-19T08:33:21;14.13;;;2.33;;
46643;SDS011;32371;51.032;5.816;2023-11-19T08:35:47;12.25;;;2.53;;
46643;SDS011;32371;51.032;5.816;2023-11-19T08:38:13;17.95;;;2.50;;
46643;SDS011;32371;51.032;5.816;2023-11-19T08:40:38;16.75;;;3.17;;
46643;SDS011;32371;51.032;5.816;2023-11-19T08:43:04;13.15;;;2.75;;
46643;SDS011;32371;51.032;5.816;2023-11-19T08:45:29;14.15;;;2.17;;
46643;SDS011;32371;51.032;5.816;2023-11-19T08:47:55;13.68;;;5.03;;
46643;SDS011;32371;51.032;5.816;2023-11-19T08:50:20;13.95;;;2.65;;
46643;SDS011;32371;51.032;5.816;2023-11-19T08:52:46;23.08;;;3.28;;
46643;SDS011;32371;51.032;5.816;2023-11-19T08:55:11;19.88;;;2.53;;
46643;SDS011;32371;51.032;5.816;2023-11-19T08:57:38;20.30;;;3.75;;
46643;SDS011;32371;51.032;5.816;2023-11-19T09:00:04;19.63;;;2.88;;
46643;SDS011;32371;51.032;5.816;2023-11-19T09:02:33;18.08;;;2.30;;
46643;SDS011;32371;51.032;5.816;2023-11-19T09:04:59;21.90;;;2.53;;
46643;SDS011;32371;51.032;5.816;2023-11-19T09:07:24;15.38;;;2.97;;
46643;SDS011;32371;51.032;5.816;2023-11-19T09:09:49;18.30;;;3.10;;
46643;SDS011;32371;51.032;5.816;2023-11-19T09:12:15;13.52;;;2.45;;
46643;SDS011;32371;51.032;5.816;2023-11-19T09:14:40;19.90;;;3.50;;
46643;SDS011;32371;51.032;5.816;2023-11-19T09:17:06;15.85;;;3.53;;
46643;SDS011;32371;51.032;5.816;2023-11-19T09:19:32;23.63;;;2.85;;
46643;SDS011;32371;51.032;5.816;2023-11-19T09:21:58;13.23;;;2.35;;
46643;SDS011;32371;51.032;5.816;2023-11-19T09:24:23;15.18;;;2.22;;
46643;SDS011;32371;51.032;5.816;2023-11-19T09:26:48;16.67;;;2.92;;
46643;SDS011;32371;51.032;5.816;2023-11-19T09:29:14;13.85;;;2.78;;
46643;SDS011;32371;51.032;5.816;2023-11-19T09:31:39;22.67;;;3.28;;
46643;SDS011;32371;51.032;5.816;2023-11-19T09:34:05;14.85;;;2.42;;
46643;SDS011;32371;51.032;5.816;2023-11-19T09:36:30;14.88;;;2.45;;
46643;SDS011;32371;51.032;5.816;2023-11-19T09:38:56;9.30;;;2.50;;
46643;SDS011;32371;51.032;5.816;2023-11-19T09:41:21;15.73;;;2.67;;
46643;SDS011;32371;51.032;5.816;2023-11-19T09:43:48;20.30;;;2.92;;
46643;SDS011;32371;51.032;5.816;2023-11-19T09:46:14;19.17;;;3.40;;
46643;SDS011;32371;51.032;5.816;2023-11-19T09:48:40;11.00;;;2.75;;
46643;SDS011;32371;51.032;5.816;2023-11-19T09:51:06;19.27;;;3.00;;
46643;SDS011;32371;51.032;5.816;2023-11-19T09:53:32;24.98;;;3.08;;
46643;SDS011;32371;51.032;5.816;2023-11-19T09:55:59;10.75;;;2.97;;
46643;SDS011;32371;51.032;5.816;2023-11-19T09:58:25;16.40;;;3.15;;
46643;SDS011;32371;51.032;5.816;2023-11-19T10:00:51;15.80;;;2.70;;
46643;SDS011;32371;51.032;5.816;2023-11-19T10:03:17;14.18;;;2.83;;
46643;SDS011;32371;51.032;5.816;2023-11-19T10:05:42;14.82;;;3.15;;
46643;SDS011;32371;51.032;5.816;2023-11-19T10:08:07;12.10;;;1.95;;
46643;SDS011;32371;51.032;5.816;2023-11-19T10:10:33;14.40;;;2.40;;
46643;SDS011;32371;51.032;5.816;2023-11-19T10:12:59;14.68;;;3.42;;
46643;SDS011;32371;51.032;5.816;2023-11-19T10:15:25;14.02;;;2.53;;
46643;SDS011;32371;51.032;5.816;2023-11-19T10:17:52;21.30;;;4.25;;
46643;SDS011;32371;51.032;5.816;2023-11-19T10:20:20;14.00;;;2.20;;
46643;SDS011;32371;51.032;5.816;2023-11-19T10:22:45;13.43;;;1.92;;
46643;SDS011;32371;51.032;5.816;2023-11-19T10:27:49;17.02;;;2.67;;
46643;SDS011;32371;51.032;5.816;2023-11-19T10:30:21;17.52;;;2.28;;
46643;SDS011;32371;51.032;5.816;2023-11-19T10:35:33;14.18;;;3.40;;
46643;SDS011;32371;51.032;5.816;2023-11-19T10:37:59;14.57;;;2.70;;
46643;SDS011;32371;51.032;5.816;2023-11-19T10:40:37;13.75;;;2.40;;
46643;SDS011;32371;51.032;5.816;2023-11-19T10:43:03;15.90;;;2.97;;
46643;SDS011;32371;51.032;5.816;2023-11-19T10:45:28;15.63;;;2.60;;
46643;SDS011;32371;51.032;5.816;2023-11-19T10:47:53;11.48;;;2.67;;
46643;SDS011;32371;51.032;5.816;2023-11-19T10:50:19;14.00;;;2.25;;
46643;SDS011;32371;51.032;5.816;2023-11-19T10:52:45;10.55;;;2.88;;
46643;SDS011;32371;51.032;5.816;2023-11-19T10:55:11;15.93;;;2.75;;
46643;SDS011;32371;51.032;5.816;2023-11-19T10:57:39;9.18;;;1.90;;
46643;SDS011;32371;51.032;5.816;2023-11-19T11:00:09;14.32;;;3.45;;
46643;SDS011;32371;51.032;5.816;2023-11-19T11:02:38;9.57;;;1.73;;
46643;SDS011;32371;51.032;5.816;2023-11-19T11:05:07;14.75;;;1.90;;
46643;SDS011;32371;51.032;5.816;2023-11-19T11:07:33;4.97;;;1.70;;
46643;SDS011;32371;51.032;5.816;2023-11-19T11:09:59;8.07;;;1.63;;
46643;SDS011;32371;51.032;5.816;2023-11-19T11:12:25;7.70;;;1.75;;
46643;SDS011;32371;51.032;5.816;2023-11-19T11:14:50;8.77;;;2.13;;
46643;SDS011;32371;51.032;5.816;2023-11-19T11:17:18;11.82;;;2.72;;
46643;SDS011;32371;51.032;5.816;2023-11-19T11:19:44;9.55;;;2.00;;
46643;SDS011;32371;51.032;5.816;2023-11-19T11:22:09;11.05;;;2.65;;
46643;SDS011;32371;51.032;5.816;2023-11-19T11:24:43;9.57;;;2.25;;
46643;SDS011;32371;51.032;5.816;2023-11-19T11:33:12;12.23;;;1.90;;
46643;SDS011;32371;51.032;5.816;2023-11-19T11:38:15;11.30;;;2.25;;
46643;SDS011;32371;51.032;5.816;2023-11-19T11:41:14;12.50;;;1.88;;
46643;SDS011;32371;51.032;5.816;2023-11-19T11:43:58;10.27;;;2.72;;
46643;SDS011;32371;51.032;5.816;2023-11-19T11:54:07;10.35;;;2.58;;
46643;SDS011;32371;51.032;5.816;2023-11-19T11:56:33;10.77;;;2.90;;
46643;SDS011;32371;51.032;5.816;2023-11-19T11:59:02;14.00;;;2.88;;
46643;SDS011;32371;51.032;5.816;2023-11-19T12:01:27;15.38;;;2.10;;
46643;SDS011;32371;51.032;5.816;2023-11-19T12:03:55;9.98;;;2.58;;
46643;SDS011;32371;51.032;5.816;2023-11-19T12:06:21;14.75;;;2.17;;
46643;SDS011;32371;51.032;5.816;2023-11-19T12:08:47;12.10;;;2.72;;
46643;SDS011;32371;51.032;5.816;2023-11-19T12:11:12;13.35;;;3.35;;
46643;SDS011;32371;51.032;5.816;2023-11-19T12:16:32;13.35;;;1.85;;
46643;SDS011;32371;51.032;5.816;2023-11-19T12:19:03;11.70;;;2.17;;
46643;SDS011;32371;51.032;5.816;2023-11-19T12:21:30;13.00;;;1.77;;
46643;SDS011;32371;51.032;5.816;2023-11-19T12:23:57;5.95;;;1.38;;
46643;SDS011;32371;51.032;5.816;2023-11-19T12:26:31;10.00;;;1.88;;
46643;SDS011;32371;51.032;5.816;2023-11-19T12:29:00;11.65;;;1.55;;
46643;SDS011;32371;51.032;5.816;2023-11-19T12:31:26;13.50;;;2.13;;
46643;SDS011;32371;51.032;5.816;2023-11-19T12:33:51;12.23;;;3.55;;
46643;SDS011;32371;51.032;5.816;2023-11-19T12:36:18;16.30;;;2.10;;
46643;SDS011;32371;51.032;5.816;2023-11-19T12:38:43;10.98;;;1.95;;
46643;SDS011;32371;51.032;5.816;2023-11-19T12:41:10;14.80;;;2.50;;
46643;SDS011;32371;51.032;5.816;2023-11-19T12:43:36;14.15;;;1.92;;
46643;SDS011;32371;51.032;5.816;2023-11-19T12:46:23;11.25;;;2.38;;
46643;SDS011;32371;51.032;5.816;2023-11-19T12:48:49;8.32;;;1.55;;
46643;SDS011;32371;51.032;5.816;2023-11-19T12:51:14;12.88;;;2.25;;
46643;SDS011;32371;51.032;5.816;2023-11-19T12:53:47;13.10;;;2.88;;
46643;SDS011;32371;51.032;5.816;2023-11-19T12:56:14;17.48;;;2.53;;
46643;SDS011;32371;51.032;5.816;2023-11-19T12:58:40;15.43;;;2.13;;
46643;SDS011;32371;51.032;5.816;2023-11-19T13:01:08;16.27;;;2.08;;
46643;SDS011;32371;51.032;5.816;2023-11-19T13:03:38;12.73;;;3.05;;
46643;SDS011;32371;51.032;5.816;2023-11-19T13:08:45;13.15;;;2.65;;
46643;SDS011;32371;51.032;5.816;2023-11-19T13:11:32;10.82;;;1.58;;
46643;SDS011;32371;51.032;5.816;2023-11-19T13:14:00;13.73;;;2.03;;
46643;SDS011;32371;51.032;5.816;2023-11-19T13:16:29;9.40;;;2.33;;
46643;SDS011;32371;51.032;5.816;2023-11-19T13:18:54;11.70;;;2.17;;
46643;SDS011;32371;51.032;5.816;2023-11-19T13:21:20;12.45;;;2.10;;
46643;SDS011;32371;51.032;5.816;2023-11-19T13:23:45;13.32;;;2.17;;
46643;SDS011;32371;51.032;5.816;2023-11-19T13:26:11;19.23;;;2.97;;
46643;SDS011;32371;51.032;5.816;2023-11-19T13:28:36;10.00;;;2.00;;
46643;SDS011;32371;51.032;5.816;2023-11-19T13:31:02;11.15;;;2.83;;
46643;SDS011;32371;51.032;5.816;2023-11-19T13:33:28;10.32;;;2.40;;
46643;SDS011;32371;51.032;5.816;2023-11-19T13:35:54;17.40;;;3.42;;
46643;SDS011;32371;51.032;5.816;2023-11-19T13:38:19;15.60;;;2.92;;
46643;SDS011;32371;51.032;5.816;2023-11-19T13:40:45;10.98;;;1.88;;
46643;SDS011;32371;51.032;5.816;2023-11-19T13:43:10;8.15;;;1.58;;
46643;SDS011;32371;51.032;5.816;2023-11-19T13:45:36;9.18;;;2.00;;
46643;SDS011;32371;51.032;5.816;2023-11-19T13:48:02;8.43;;;1.48;;
46643;SDS011;32371;51.032;5.816;2023-11-19T13:50:27;8.20;;;1.38;;
46643;SDS011;32371;51.032;5.816;2023-11-19T13:52:54;9.65;;;2.33;;
46643;SDS011;32371;51.032;5.816;2023-11-19T13:55:19;9.93;;;1.60;;
46643;SDS011;32371;51.032;5.816;2023-11-19T13:57:44;9.68;;;2.00;;
46643;SDS011;32371;51.032;5.816;2023-11-19T14:00:11;8.75;;;1.67;;
46643;SDS011;32371;51.032;5.816;2023-11-19T14:02:44;14.18;;;3.35;;
46643;SDS011;32371;51.032;5.816;2023-11-19T14:05:10;18.13;;;2.40;;
46643;SDS011;32371;51.032;5.816;2023-11-19T14:07:36;13.48;;;2.83;;
46643;SDS011;32371;51.032;5.816;2023-11-19T14:10:02;14.82;;;2.85;;
46643;SDS011;32371;51.032;5.816;2023-11-19T14:12:28;10.75;;;3.55;;
46643;SDS011;32371;51.032;5.816;2023-11-19T14:14:53;12.30;;;1.85;;
46643;SDS011;32371;51.032;5.816;2023-11-19T14:17:19;15.30;;;2.20;;
46643;SDS011;32371;51.032;5.816;2023-11-19T14:19:45;12.43;;;2.55;;
46643;SDS011;32371;51.032;5.816;2023-11-19T14:22:11;10.13;;;1.80;;
46643;SDS011;32371;51.032;5.816;2023-11-19T14:24:37;14.38;;;2.60;;
46643;SDS011;32371;51.032;5.816;2023-11-19T14:27:02;13.48;;;3.20;;
46643;SDS011;32371;51.032;5.816;2023-11-19T14:29:28;16.92;;;2.92;;
46643;SDS011;32371;51.032;5.816;2023-11-19T14:31:54;14.73;;;2.47;;
46643;SDS011;32371;51.032;5.816;2023-11-19T14:34:20;10.98;;;1.80;;
46643;SDS011;32371;51.032;5.816;2023-11-19T14:36:45;12.63;;;1.73;;
46643;SDS011;32371;51.032;5.816;2023-11-19T14:39:11;19.48;;;2.72;;
46643;SDS011;32371;51.032;5.816;2023-11-19T14:41:36;9.00;;;2.00;;
46643;SDS011;32371;51.032;5.816;2023-11-19T14:44:02;12.45;;;2.40;;
46643;SDS011;32371;51.032;5.816;2023-11-19T14:46:28;8.77;;;2.20;;
46643;SDS011;32371;51.032;5.816;2023-11-19T14:48:53;12.73;;;2.85;;
46643;SDS011;32371;51.032;5.816;2023-11-19T14:51:19;19.70;;;3.00;;
46643;SDS011;32371;51.032;5.816;2023-11-19T14:53:45;10.15;;;1.55;;
46643;SDS011;32371;51.032;5.816;2023-11-19T14:56:10;12.45;;;1.58;;
46643;SDS011;32371;51.032;5.816;2023-11-19T14:58:37;10.13;;;1.60;;
46643;SDS011;32371;51.032;5.816;2023-11-19T15:01:03;14.45;;;2.20;;